Historyczne dane pomiarowe

Dodano dane terminowe – wersja testowa.

Dane z okresu 1951-2019

Wersja bazy: 1.34 [2019-03-16, lista zmian], aktualizacja planowana na 2019-04-15

Dane meteo z obszaru Polski uzyskane na podstawie danych udostępnionych przez Instytut Meteorologii i Gospodarki Wodnej – Państwowy Instytut Badawczy.

 

Wybierz Datę:    

       

TemperaturaWilgotnośćWiatrCiśnienieOpadyŚniegCzas trwania zjawisk
 Stacja t tx tn tng RH VA  wxwx mslp ppp RRR   cm mm wxwxwxwxwxwxwx
1956-11-09 -2.2 0.7 -5.4 -7.1 80.3- 5.3 2.0---- 0.0------------
1956-11-08 -1.7 2.5 -4.0 -8.1 92.8- 5.7 1.7---- 0.0------------
1956-11-07 0.0 2.7 -1.8 -4.0 88.8- 5.7 3.3---- 0.0------------
1956-11-06 1.3 3.7 -0.4 -1.9 84.5- 5.0 3.7---- 0.0------------
1956-11-05 3.3 7.5 1.7 0.9 91.0- 7.7 4.3---- 0.7------------
1956-11-04 1.3 4.0 -5.1 -9.3 75.0- 7.3 1.7---- 0.3------------
1956-11-03 0.1 3.9 -3.7 -8.2 88.5- 6.3 1.0---- 0.0------------
1956-11-02 0.1 4.9 -2.0 -0.7 95.8- 3.0 1.0---- 0.0------------
1956-11-01 -0.7 1.7 -8.6-11.1 81.3- 8.0 4.0---- 0.7------------
1956-10-31 -6.7 -2.5 -8.2 -9.3 83.8- 0.7 1.3---- 0.0------------
1956-10-30 -1.5 2.6 -3.1 -0.1 90.0- 5.3 6.0---- 0.0------------
1956-10-29 3.6 7.0 2.3 7.1 92.5- 8.0 3.3---- 0.9------------
1956-10-28 8.0 9.9 7.0 8.7 97.8- 8.0 6.7---- 17.1------------
1956-10-27 8.1 9.2 6.2 6.2 97.3- 8.0 6.3---- 3.2------------
1956-10-26 7.0 11.9 6.4 8.3 97.8- 8.0 1.3---- 7.7------------
1956-10-25 11.7 14.3 9.5 8.5 85.5- 8.0 2.3---- 2.8------------
1956-10-24 11.4 14.4 2.8 1.1 90.0- 7.7 2.0---- 0.0------------
1956-10-23 7.0 12.2 2.8 9.9 84.5- 5.0 2.3---- 0.0------------
1956-10-22 11.6 12.5 9.7 8.0 83.3- 7.7 5.3---- 0.0------------
1956-10-21 11.4 17.0 5.5 3.9 92.5- 3.7 2.0---- 0.0------------
1956-10-20 10.4 13.7 6.7 5.3 90.8- 8.0 1.3---- 0.0------------
1956-10-19 9.8 13.9 6.7 11.1 94.8- 7.7 2.7---- 0.0------------
1956-10-18 11.0 14.3 4.8 3.1 94.3- 8.0 1.7---- 2.0------------
1956-10-17 6.9 14.5 -1.8 -2.9 78.8- 2.3 2.3---- 0.0------------
1956-10-16 2.9 12.9 -3.2 -5.4 87.8- 2.7 0.7---- 0.0------------
1956-10-15 3.4 11.8 0.6 -0.9 87.8- 4.7 1.7---- 0.0------------
1956-10-14 6.0 11.7 2.6 3.9 78.3- 1.3 5.0---- 0.0------------
1956-10-13 10.9 12.8 8.7 6.2 69.8- 8.0 9.3---- 2.5------------
1956-10-12 9.4 11.1 8.7 8.5 82.0- 6.0 4.7---- 0.0------------
1956-10-11 8.5 10.1 4.6 1.9 79.5- 7.3 3.7---- 0.0------------
1956-10-10 5.0 9.7 -2.3 -5.6 78.0- 6.7 2.0---- 0.0------------
1956-10-09 5.0 8.8 2.0 -1.4 93.5- 5.3 2.3---- 1.5------------
1956-10-08 5.1 8.6 4.1 3.1 89.0- 6.3 2.0---- 0.1------------
1956-10-07 6.7 9.2 5.1 5.2 81.8- 7.7 5.7---- 1.1------------
1956-10-06 6.3 7.4 2.5 -1.4 96.8- 8.0 1.3---- 11.1------------
1956-10-05 6.5 12.1 3.7 0.3 94.0- 4.7 1.3---- 1.8------------
1956-10-04 8.2 15.7 1.6 -2.0 92.0- 5.3 2.3---- 1.1------------
1956-10-03 11.8 17.1 7.0 9.0 88.0- 4.7 4.3---- 0.0------------
1956-10-02 14.9 25.5 6.6 4.6 84.3- 3.7 2.0---- 0.2------------
1956-10-01 13.8 23.4 4.2 -0.8 86.5- 3.0 2.3---- 0.0------------
1956-09-30 10.6 17.7 7.9 6.0 86.5- 4.3 2.3---- 0.0------------
1956-09-29 14.3 18.5 11.6 13.3 80.3- 3.7 5.7---- 0.0------------
1956-09-28 15.4 19.2 8.4 4.8 79.8- 7.7 4.7---- 0.0------------
1956-09-27 16.2 22.9 10.9 7.5 72.5- 1.3 2.3---- 0.0------------
1956-09-26 15.7 23.0 6.3 0.2 65.3- 0.0 4.0---- 0.0------------
1956-09-25 9.8 19.1 1.5 -3.4 78.0- 0.0 2.7---- 0.0------------
1956-09-24 8.0 15.6 2.9 -0.2 64.8- 0.0 4.0---- 0.0------------
1956-09-23 10.6 17.5 6.3 3.8 69.5- 3.7 5.0---- 0.0------------
1956-09-22 12.0 18.8 4.0 -0.8 75.3- 0.0 3.3---- 0.0------------
1956-09-21 9.8 18.5 1.2 -2.3 81.8- 0.0 1.0---- 0.0------------
1956-09-20 9.2 17.2 2.3 -1.3 85.0- 3.7 1.7---- 0.0------------
1956-09-19 7.7 17.0 -0.2 -2.4 85.5- 0.7 1.0---- 0.0------------
1956-09-18 9.0 15.1 4.4 1.6 85.8- 3.0 1.7---- 0.0------------
1956-09-17 8.8 15.2 6.5 5.2 78.3- 3.3 4.0---- 0.0------------
1956-09-16 10.7 14.6 4.5 -0.4 78.0- 5.3 5.0---- 1.1------------
1956-09-15 10.3 16.2 5.9 1.0 83.0- 4.3 3.3---- 0.0------------
1956-09-14 10.5 16.3 5.0 2.6 87.3- 1.7 2.3---- 0.0------------
1956-09-13 9.0 14.8 7.2 5.6 86.5- 3.7 3.3---- 2.6------------
1956-09-12 10.5 16.0 7.9 12.9 89.5- 4.7 4.0---- 2.9------------
1956-09-11 14.3 18.9 12.6 12.4 92.5- 6.7 2.0---- 6.8------------
223.7 ms

 

Źródłem pochodzenia danych jest Instytut Meteorologii i Gospodarki Wodnej – Państwowy Instytut Badawczy. Dane Instytutu Meteorologii i Gospodarki Wodnej – Państwowego Instytutu Badawczego zostały przetworzone.

Dane źródłowe można odnaleźć na stronie https://dane.imgw.pl